createdAt,value
2023-02-01T00:00:35.863Z,24.77
2023-02-01T00:03:02.754Z,21.50
2023-02-01T00:05:29.778Z,19.17
2023-02-01T00:07:56.788Z,28.53
2023-02-01T00:10:24.154Z,26.37
2023-02-01T00:12:53.592Z,27.37
2023-02-01T00:15:21.680Z,22.27
2023-02-01T00:17:49.103Z,16.57
2023-02-01T00:20:16.255Z,19.57
2023-02-01T00:22:43.510Z,18.00
2023-02-01T00:25:10.580Z,12.43
2023-02-01T00:27:37.928Z,18.43
2023-02-01T00:30:07.844Z,22.80
2023-02-01T00:32:35.134Z,27.47
2023-02-01T00:35:02.128Z,20.93
2023-02-01T00:37:29.487Z,19.63
2023-02-01T00:39:56.791Z,24.83
2023-02-01T00:42:23.886Z,29.17
2023-02-01T00:44:50.828Z,27.23
2023-02-01T00:47:20.789Z,22.27
2023-02-01T00:49:47.708Z,20.80
2023-02-01T00:52:15.060Z,29.93
2023-02-01T00:54:42.027Z,22.70
2023-02-01T00:57:08.943Z,13.70
2023-02-01T00:59:35.880Z,22.57
2023-02-01T01:02:03.356Z,29.67
2023-02-01T01:04:31.697Z,20.33
2023-02-01T01:06:59.309Z,19.20
2023-02-01T01:09:26.273Z,24.33
2023-02-01T01:11:54.067Z,23.43
2023-02-01T01:14:21.036Z,21.13
2023-02-01T01:16:48.315Z,19.77
2023-02-01T01:19:15.432Z,25.50
2023-02-01T01:21:43.924Z,22.07
2023-02-01T01:24:10.862Z,20.53
2023-02-01T01:26:38.361Z,21.40
2023-02-01T01:29:05.427Z,27.30
2023-02-01T01:31:32.834Z,18.27
2023-02-01T01:34:00.543Z,28.63
2023-02-01T01:36:28.919Z,19.67
2023-02-01T01:38:57.822Z,23.90
2023-02-01T01:41:27.091Z,28.63
2023-02-01T01:43:57.252Z,23.83
2023-02-01T01:46:26.309Z,17.27
2023-02-01T01:48:59.785Z,23.97
2023-02-01T01:51:29.672Z,18.10
2023-02-01T01:54:03.269Z,26.53
2023-02-01T01:56:32.409Z,15.77
2023-02-01T01:58:59.641Z,27.73
2023-02-01T02:01:27.201Z,30.90
2023-02-01T02:03:55.633Z,24.60
2023-02-01T02:06:33.948Z,31.77
2023-02-01T02:09:05.302Z,21.77
2023-02-01T02:11:34.261Z,27.17
2023-02-01T02:14:02.175Z,22.40
2023-02-01T02:16:42.074Z,28.80
2023-02-01T02:19:36.529Z,24.43
2023-02-01T02:22:30.837Z,17.80
2023-02-01T02:25:28.367Z,26.07
2023-02-01T02:28:05.964Z,25.83
2023-02-01T02:30:55.709Z,15.77
2023-02-01T02:33:48.572Z,21.43
2023-02-01T02:36:24.287Z,26.23
2023-02-01T02:38:58.060Z,27.70
2023-02-01T02:41:51.466Z,19.33
2023-02-01T02:44:47.720Z,30.17
2023-02-01T02:47:25.924Z,24.67
2023-02-01T02:50:22.086Z,23.07
2023-02-01T02:53:16.563Z,15.40
2023-02-01T02:55:45.359Z,24.53
2023-02-01T02:58:32.281Z,25.13
2023-02-01T03:01:18.282Z,21.93
2023-02-01T03:04:05.058Z,20.87
2023-02-01T03:06:34.223Z,27.07
2023-02-01T03:09:09.848Z,12.77
2023-02-01T03:11:56.171Z,12.77
2023-02-01T03:14:26.847Z,16.47
2023-02-01T03:16:59.557Z,22.97
2023-02-01T03:19:33.173Z,13.77
2023-02-01T03:22:05.045Z,26.03
2023-02-01T03:24:36.453Z,28.03
2023-02-01T03:27:10.081Z,25.03
2023-02-01T03:29:43.033Z,20.03
2023-02-01T03:32:10.401Z,23.80
2023-02-01T03:34:38.222Z,30.03
2023-02-01T03:37:10.518Z,22.03
2023-02-01T03:39:42.734Z,26.03
2023-02-01T03:42:15.504Z,16.50
2023-02-01T03:44:48.121Z,20.63
2023-02-01T03:47:20.973Z,32.60
2023-02-01T03:49:51.080Z,23.80
2023-02-01T03:52:23.700Z,26.10
2023-02-01T03:54:52.784Z,24.83
2023-02-01T03:57:24.753Z,24.27
2023-02-01T03:59:52.383Z,16.90
2023-02-01T04:02:19.969Z,26.40
2023-02-01T04:04:47.000Z,16.73
2023-02-01T04:07:14.280Z,29.47
2023-02-01T04:09:43.052Z,14.83
2023-02-01T04:12:10.127Z,25.83
2023-02-01T04:14:37.034Z,16.97
2023-02-01T04:17:04.502Z,20.90
2023-02-01T04:19:31.409Z,34.87
2023-02-01T04:21:58.644Z,17.33
2023-02-01T04:24:25.610Z,19.07
2023-02-01T04:26:54.271Z,13.43
2023-02-01T04:29:21.374Z,19.33
2023-02-01T04:31:48.441Z,19.33
2023-02-01T04:34:16.153Z,27.73
2023-02-01T04:36:44.543Z,27.40
2023-02-01T04:39:13.349Z,30.50
2023-02-01T04:41:40.807Z,22.50
2023-02-01T04:44:14.226Z,27.40
2023-02-01T04:46:41.544Z,18.00
2023-02-01T04:49:09.705Z,18.43
2023-02-01T04:51:36.792Z,16.73
2023-02-01T04:54:04.108Z,28.00
2023-02-01T04:56:31.545Z,20.77
2023-02-01T04:58:58.444Z,18.90
2023-02-01T05:01:27.132Z,23.83
2023-02-01T05:03:54.061Z,27.23
2023-02-01T05:06:21.086Z,27.07
2023-02-01T05:08:48.324Z,23.47
2023-02-01T05:11:34.052Z,27.87
2023-02-01T05:14:02.647Z,17.63
2023-02-01T05:16:31.121Z,27.43
2023-02-01T05:18:58.410Z,27.93
2023-02-01T05:21:25.643Z,16.20
2023-02-01T05:24:10.697Z,19.17
2023-02-01T05:26:38.491Z,32.87
2023-02-01T05:29:07.189Z,26.23
2023-02-01T05:31:36.012Z,23.70
2023-02-01T05:34:03.180Z,31.83
2023-02-01T05:36:30.098Z,18.60
2023-02-01T05:38:57.541Z,15.67
2023-02-01T05:41:24.757Z,14.33
2023-02-01T05:43:52.154Z,14.67
2023-02-01T05:46:19.233Z,20.80
2023-02-01T05:48:48.117Z,20.10
2023-02-01T05:51:15.061Z,22.10
2023-02-01T05:53:42.495Z,23.20
2023-02-01T05:56:09.444Z,16.50
2023-02-01T05:58:36.729Z,13.53
2023-02-01T06:01:04.369Z,26.47
2023-02-01T06:03:31.712Z,22.87
2023-02-01T06:06:02.020Z,22.97
2023-02-01T06:08:29.533Z,28.93
2023-02-01T06:11:00.640Z,28.80
2023-02-01T06:13:28.025Z,17.93
2023-02-01T06:15:54.993Z,24.90
2023-02-01T06:18:22.431Z,30.80
2023-02-01T06:20:54.325Z,26.67
2023-02-01T06:23:25.318Z,21.53
2023-02-01T06:25:53.208Z,27.77
2023-02-01T06:28:20.885Z,27.13
2023-02-01T06:30:47.883Z,22.53
2023-02-01T06:33:16.518Z,10.10
2023-02-01T06:35:45.250Z,26.43
2023-02-01T06:38:13.160Z,22.80
2023-02-01T06:40:43.154Z,22.77
2023-02-01T06:43:10.339Z,23.47
2023-02-01T06:45:37.261Z,19.70
2023-02-01T06:48:04.675Z,21.43
2023-02-01T06:50:31.863Z,21.33
2023-02-01T06:52:59.125Z,24.23
2023-02-01T06:55:26.059Z,23.90
2023-02-01T06:57:57.909Z,22.13
2023-02-01T07:00:25.412Z,13.53
2023-02-01T07:02:52.873Z,24.63
2023-02-01T07:05:19.774Z,26.63
2023-02-01T07:07:46.744Z,12.13
2023-02-01T07:10:14.191Z,15.00
2023-02-01T07:12:41.123Z,17.20
2023-02-01T07:15:10.334Z,11.50
2023-02-01T07:17:37.803Z,9.47
2023-02-01T07:20:06.077Z,17.23
2023-02-01T07:22:33.140Z,17.50
2023-02-01T07:25:00.422Z,12.90
2023-02-01T07:27:27.386Z,12.73
2023-02-01T07:29:56.816Z,7.37
2023-02-01T07:32:25.109Z,10.97
2023-02-01T07:34:52.386Z,14.00
2023-02-01T07:37:19.493Z,13.70
2023-02-01T07:39:46.547Z,18.93
2023-02-01T07:42:13.469Z,12.90
2023-02-01T07:44:40.736Z,13.63
2023-02-01T07:47:07.968Z,15.63
2023-02-01T07:49:36.721Z,6.20
2023-02-01T07:52:03.686Z,14.07
2023-02-01T07:54:31.010Z,12.00
2023-02-01T07:56:57.935Z,14.23
2023-02-01T07:59:24.898Z,10.30
2023-02-01T08:01:51.849Z,15.73
2023-02-01T08:04:19.139Z,18.03
2023-02-01T08:06:47.368Z,14.73
2023-02-01T08:09:14.466Z,20.23
2023-02-01T08:11:41.448Z,21.60
2023-02-01T08:14:08.384Z,15.77
2023-02-01T08:16:37.437Z,20.40
2023-02-01T08:19:04.805Z,26.20
2023-02-01T08:21:37.683Z,23.10
2023-02-01T08:24:09.087Z,23.83
2023-02-01T08:26:36.169Z,17.67
2023-02-01T08:29:06.235Z,22.80
2023-02-01T08:31:33.171Z,26.17
2023-02-01T08:34:02.515Z,29.50
2023-02-01T08:36:31.337Z,28.30
2023-02-01T08:38:59.225Z,24.77
2023-02-01T08:41:30.055Z,20.47
2023-02-01T08:43:58.112Z,26.07
2023-02-01T08:46:25.243Z,26.90
2023-02-01T08:48:53.161Z,20.03
2023-02-01T08:51:23.255Z,25.10
2023-02-01T08:53:51.047Z,30.47
2023-02-01T08:56:19.476Z,27.40
2023-02-01T08:58:48.222Z,16.30
2023-02-01T09:01:17.901Z,25.23
2023-02-01T09:03:45.543Z,20.37
2023-02-01T09:06:14.317Z,16.93
2023-02-01T09:08:41.889Z,20.73
2023-02-01T09:11:12.063Z,15.93
2023-02-01T09:13:39.325Z,22.33
2023-02-01T09:16:07.897Z,18.10
2023-02-01T09:18:35.508Z,16.60
2023-02-01T09:21:05.393Z,20.43
2023-02-01T09:23:32.374Z,19.50
2023-02-01T09:26:00.354Z,25.50
2023-02-01T09:28:27.713Z,23.23
2023-02-01T09:30:57.599Z,21.10
2023-02-01T09:33:26.209Z,16.27
2023-02-01T09:35:57.297Z,17.87
2023-02-01T09:38:26.616Z,22.10
2023-02-01T09:40:54.256Z,23.33
2023-02-01T09:43:32.843Z,20.67
2023-02-01T09:46:07.559Z,16.47
2023-02-01T09:48:41.775Z,15.23
2023-02-01T09:51:16.858Z,14.87
2023-02-01T09:53:45.922Z,22.17
2023-02-01T09:56:15.593Z,10.20
2023-02-01T09:58:44.271Z,19.70
2023-02-01T10:01:19.240Z,15.27
2023-02-01T10:03:48.036Z,19.43
2023-02-01T10:06:29.492Z,15.47
2023-02-01T10:09:19.118Z,28.30
2023-02-01T10:11:57.931Z,16.23
2023-02-01T10:14:47.181Z,13.43
2023-02-01T10:17:24.657Z,6.57
2023-02-01T10:20:01.208Z,14.73
2023-02-01T10:23:03.645Z,19.27
2023-02-01T10:25:32.923Z,12.17
2023-02-01T10:28:02.780Z,18.13
2023-02-01T10:30:35.836Z,17.77
2023-02-01T10:33:15.382Z,12.43
2023-02-01T10:35:46.444Z,13.77
2023-02-01T10:38:21.831Z,11.97
2023-02-01T10:40:49.223Z,13.63
2023-02-01T10:43:16.172Z,14.10
2023-02-01T10:45:43.952Z,13.57
2023-02-01T10:48:11.103Z,10.03
2023-02-01T10:50:41.589Z,19.43
2023-02-01T10:53:14.606Z,16.30
2023-02-01T10:55:49.074Z,17.67
2023-02-01T10:58:18.229Z,12.80
2023-02-01T11:00:54.914Z,15.53
2023-02-01T11:03:43.547Z,15.97
2023-02-01T11:06:18.777Z,17.73
2023-02-01T11:08:50.853Z,15.17
2023-02-01T11:11:19.515Z,14.60
2023-02-01T11:13:54.247Z,20.40
2023-02-01T11:16:21.904Z,15.23
2023-02-01T11:18:55.744Z,21.67
2023-02-01T11:21:23.521Z,16.30
2023-02-01T11:23:51.986Z,21.47
2023-02-01T11:26:24.899Z,18.73
2023-02-01T11:28:57.279Z,10.63
2023-02-01T11:31:25.950Z,17.20
2023-02-01T11:33:55.550Z,17.03
2023-02-01T11:36:27.603Z,17.13
2023-02-01T11:39:10.344Z,15.60
2023-02-01T11:41:43.891Z,13.67
2023-02-01T11:44:23.067Z,10.20
2023-02-01T11:46:50.391Z,20.37
2023-02-01T11:49:24.015Z,20.87
2023-02-01T11:52:04.904Z,12.80
2023-02-01T11:54:47.879Z,14.07
2023-02-01T11:57:29.314Z,17.17
2023-02-01T12:00:12.385Z,16.77
2023-02-01T12:03:13.289Z,16.47
2023-02-01T12:05:51.759Z,15.60
2023-02-01T12:08:31.096Z,23.50
2023-02-01T12:11:14.998Z,14.57
2023-02-01T12:13:52.193Z,13.07
2023-02-01T12:16:27.486Z,21.33
2023-02-01T12:19:16.620Z,15.53
2023-02-01T12:21:59.897Z,18.50
2023-02-01T12:25:02.893Z,14.83
2023-02-01T12:27:48.255Z,11.03
2023-02-01T12:30:32.792Z,10.87
2023-02-01T12:33:07.386Z,15.50
2023-02-01T12:35:58.123Z,14.70
2023-02-01T12:38:41.576Z,19.37
2023-02-01T12:41:21.185Z,17.90
2023-02-01T12:43:55.931Z,14.20
2023-02-01T12:46:29.137Z,14.17
2023-02-01T12:49:00.280Z,9.57
2023-02-01T12:51:31.770Z,15.07
2023-02-01T12:54:03.077Z,14.50
2023-02-01T12:56:36.383Z,17.53
2023-02-01T12:59:10.862Z,17.80
2023-02-01T13:01:42.176Z,15.60
2023-02-01T13:04:16.571Z,15.40
2023-02-01T13:06:47.986Z,20.27
2023-02-01T13:09:22.884Z,17.13
2023-02-01T13:11:52.520Z,16.37
2023-02-01T13:14:29.625Z,11.37
2023-02-01T13:17:01.788Z,10.33
2023-02-01T13:19:34.852Z,8.53
2023-02-01T13:22:08.845Z,9.80
2023-02-01T13:24:43.990Z,9.37
2023-02-01T13:27:14.194Z,15.00
2023-02-01T13:29:51.067Z,15.97
2023-02-01T13:33:53.060Z,7.00
2023-02-01T13:36:04.249Z,9.13
2023-02-01T13:39:03.836Z,12.80
2023-02-01T13:41:33.270Z,11.40
2023-02-01T13:44:03.173Z,15.70
2023-02-01T13:46:39.851Z,11.80
2023-02-01T13:49:06.816Z,13.03
2023-02-01T13:51:38.351Z,14.50
2023-02-01T13:54:07.036Z,18.73
2023-02-01T13:56:42.889Z,4.63
2023-02-01T13:59:49.141Z,9.20
2023-02-01T14:02:49.003Z,5.47
2023-02-01T14:05:49.610Z,5.90
2023-02-01T14:08:25.569Z,6.90
2023-02-01T14:10:57.061Z,2.23
2023-02-01T14:13:28.769Z,2.53
2023-02-01T14:16:24.129Z,0.90
2023-02-01T14:19:00.195Z,3.57
2023-02-01T14:21:30.558Z,1.70
2023-02-01T14:24:00.704Z,1.37
2023-02-01T14:26:42.511Z,1.43
2023-02-01T14:29:30.369Z,1.10
2023-02-01T14:32:05.251Z,4.73
2023-02-01T14:34:44.397Z,0.63
2023-02-01T14:37:25.733Z,0.87
2023-02-01T14:39:57.951Z,2.67
2023-02-01T14:42:30.747Z,4.23
2023-02-01T14:45:36.496Z,4.07
2023-02-01T14:48:43.491Z,1.77
2023-02-01T14:51:15.439Z,6.63
2023-02-01T14:53:44.534Z,1.77
2023-02-01T14:56:16.256Z,4.07
2023-02-01T14:58:49.601Z,3.80
2023-02-01T15:01:21.352Z,1.33
2023-02-01T15:04:00.758Z,2.00
2023-02-01T15:06:38.639Z,3.40
2023-02-01T15:09:10.599Z,1.37
2023-02-01T15:11:56.933Z,0.93
2023-02-01T15:14:23.838Z,3.40
2023-02-01T15:16:56.713Z,0.87
2023-02-01T15:19:25.569Z,3.43
2023-02-01T15:21:55.545Z,0.83
2023-02-01T15:24:25.443Z,1.70
2023-02-01T15:26:53.961Z,3.13
2023-02-01T15:29:22.740Z,3.90
2023-02-01T15:31:53.562Z,1.93
2023-02-01T15:34:21.731Z,3.23
2023-02-01T15:37:02.011Z,3.63
2023-02-01T15:39:32.509Z,6.93
2023-02-01T15:42:05.926Z,3.90
2023-02-01T15:44:38.640Z,4.30
2023-02-01T15:47:17.988Z,4.83
2023-02-01T15:49:48.283Z,3.30
2023-02-01T15:52:24.968Z,7.73
2023-02-01T15:54:56.587Z,3.10
2023-02-01T15:57:31.826Z,4.27
2023-02-01T16:00:00.654Z,5.33
2023-02-01T16:02:34.065Z,6.87
2023-02-01T16:05:02.437Z,4.07
2023-02-01T16:07:31.261Z,6.17
2023-02-01T16:10:07.321Z,11.23
2023-02-01T16:12:47.627Z,7.70
2023-02-01T16:15:15.431Z,5.37
2023-02-01T16:17:43.428Z,7.23
2023-02-01T16:20:11.920Z,11.10
2023-02-01T16:22:39.136Z,7.40
2023-02-01T16:25:08.650Z,6.80
2023-02-01T16:27:35.888Z,3.87
2023-02-01T16:30:02.940Z,4.93
2023-02-01T16:32:31.026Z,11.77
2023-02-01T16:34:58.508Z,11.07
2023-02-01T16:37:29.039Z,6.57
2023-02-01T16:39:56.120Z,10.43
2023-02-01T16:42:24.853Z,6.37
2023-02-01T16:44:51.782Z,9.33
2023-02-01T16:47:23.583Z,11.30
2023-02-01T16:49:51.164Z,16.13
2023-02-01T16:52:22.928Z,7.67
2023-02-01T16:54:50.129Z,10.50
2023-02-01T16:57:20.654Z,9.70
2023-02-01T16:59:49.318Z,13.63
2023-02-01T17:02:18.471Z,10.10
2023-02-01T17:04:45.974Z,11.63
2023-02-01T17:07:15.192Z,10.53
2023-02-01T17:09:42.164Z,12.27
2023-02-01T17:12:24.863Z,17.33
2023-02-01T17:14:54.000Z,9.67
2023-02-01T17:17:32.675Z,13.00
2023-02-01T17:20:04.987Z,7.83
2023-02-01T17:22:32.311Z,17.50
2023-02-01T17:24:59.318Z,13.53
2023-02-01T17:27:26.662Z,10.73
2023-02-01T17:29:57.076Z,11.43
2023-02-01T17:32:26.509Z,9.37
2023-02-01T17:34:53.857Z,17.43
2023-02-01T17:37:25.682Z,14.57
2023-02-01T17:39:55.256Z,19.77
2023-02-01T17:42:23.319Z,13.23
2023-02-01T17:44:52.455Z,16.47
2023-02-01T17:47:21.130Z,14.17
2023-02-01T17:49:51.369Z,15.07
2023-02-01T17:52:25.129Z,14.13
2023-02-01T17:54:56.246Z,24.17
2023-02-01T17:57:23.296Z,19.17
2023-02-01T17:59:50.992Z,10.43
2023-02-01T18:02:22.646Z,10.60
2023-02-01T18:04:51.013Z,15.03
2023-02-01T18:07:18.545Z,8.00
2023-02-01T18:09:45.548Z,14.90
2023-02-01T18:12:19.675Z,20.13
2023-02-01T18:14:46.748Z,15.63
2023-02-01T18:17:13.787Z,15.10
2023-02-01T18:19:42.070Z,15.30
2023-02-01T18:22:16.902Z,6.87
2023-02-01T18:24:43.874Z,7.47
2023-02-01T18:27:11.117Z,5.80
2023-02-01T18:29:37.968Z,6.83
2023-02-01T18:32:05.211Z,7.27
2023-02-01T18:34:32.500Z,9.77
2023-02-01T18:37:01.665Z,10.70
2023-02-01T18:39:28.851Z,5.97
2023-02-01T18:41:55.716Z,4.80
2023-02-01T18:44:24.473Z,9.57
2023-02-01T18:46:51.688Z,6.13
2023-02-01T18:49:20.004Z,5.60
2023-02-01T18:51:47.301Z,9.37
2023-02-01T18:54:15.525Z,15.43
2023-02-01T18:56:43.419Z,6.80
2023-02-01T18:59:11.777Z,9.57
2023-02-01T19:01:39.191Z,11.63
2023-02-01T19:04:17.394Z,7.67
2023-02-01T19:06:52.133Z,12.17
2023-02-01T19:09:20.560Z,18.50
2023-02-01T19:11:47.568Z,13.33
2023-02-01T19:14:14.456Z,9.87
2023-02-01T19:16:41.404Z,16.20
2023-02-01T19:19:08.990Z,21.73
2023-02-01T19:21:35.897Z,17.93
2023-02-01T19:24:03.277Z,13.83
2023-02-01T19:26:31.610Z,11.43
2023-02-01T19:28:58.619Z,17.00
2023-02-01T19:31:25.694Z,18.17
2023-02-01T19:33:52.710Z,20.10
2023-02-01T19:36:19.657Z,15.17
2023-02-01T19:38:46.852Z,18.77
2023-02-01T19:41:13.748Z,13.30
2023-02-01T19:43:42.058Z,18.13
2023-02-01T19:46:09.160Z,26.03
2023-02-01T19:48:36.808Z,18.83
2023-02-01T19:51:04.306Z,22.50
2023-02-01T19:53:31.664Z,16.27
2023-02-01T19:55:59.114Z,17.47
2023-02-01T19:58:26.426Z,20.43
2023-02-01T20:00:55.054Z,19.30
2023-02-01T20:03:22.464Z,21.57
2023-02-01T20:05:51.808Z,22.07
2023-02-01T20:08:19.517Z,14.23
2023-02-01T20:10:46.551Z,15.57
2023-02-01T20:13:13.806Z,24.77
2023-02-01T20:15:42.090Z,24.00
2023-02-01T20:18:10.588Z,14.13
2023-02-01T20:20:38.091Z,15.77
2023-02-01T20:23:06.371Z,12.77
2023-02-01T20:25:35.981Z,20.23
2023-02-01T20:28:03.370Z,13.87
2023-02-01T20:30:32.275Z,13.00
2023-02-01T20:32:59.488Z,13.10
2023-02-01T20:35:28.951Z,13.77
2023-02-01T20:37:57.110Z,15.20
2023-02-01T20:40:24.201Z,16.33
2023-02-01T20:42:51.385Z,13.23
2023-02-01T20:45:18.313Z,17.87
2023-02-01T20:47:49.565Z,27.03
2023-02-01T20:50:17.032Z,20.83
2023-02-01T20:52:45.703Z,21.63
2023-02-01T20:55:12.637Z,23.67
2023-02-01T20:57:39.900Z,19.80
2023-02-01T21:00:10.269Z,12.17
2023-02-01T21:02:37.566Z,22.07
2023-02-01T21:05:05.038Z,13.97
2023-02-01T21:07:31.972Z,19.57
2023-02-01T21:10:00.287Z,25.60
2023-02-01T21:12:27.555Z,21.37
2023-02-01T21:14:55.311Z,24.63
2023-02-01T21:17:22.759Z,28.63
2023-02-01T21:19:49.803Z,29.93
2023-02-01T21:22:17.280Z,21.70
2023-02-01T21:24:44.376Z,24.30
2023-02-01T21:27:13.395Z,19.40
2023-02-01T21:29:40.261Z,20.97
2023-02-01T21:32:08.680Z,24.43
2023-02-01T21:34:36.291Z,21.47
2023-02-01T21:37:03.736Z,20.23
2023-02-01T21:39:30.751Z,25.37
2023-02-01T21:42:17.656Z,17.43
2023-02-01T21:44:47.491Z,13.23
2023-02-01T21:47:17.332Z,23.20
2023-02-01T21:49:44.929Z,21.63
2023-02-01T21:52:13.338Z,20.37
2023-02-01T21:54:40.304Z,26.47
2023-02-01T21:57:14.252Z,23.57
2023-02-01T21:59:42.588Z,15.43
2023-02-01T22:02:14.071Z,20.23
2023-02-01T22:04:41.407Z,21.90
2023-02-01T22:07:09.301Z,11.17
2023-02-01T22:09:36.381Z,23.93
2023-02-01T22:12:03.996Z,17.40
2023-02-01T22:14:30.955Z,19.67
2023-02-01T22:16:58.105Z,19.63
2023-02-01T22:19:26.454Z,16.77
2023-02-01T22:21:53.783Z,20.10
2023-02-01T22:24:23.811Z,14.47
2023-02-01T22:26:51.127Z,23.90
2023-02-01T22:29:19.389Z,19.03
2023-02-01T22:31:46.629Z,28.17
2023-02-01T22:34:14.009Z,33.27
2023-02-01T22:36:43.004Z,17.77
2023-02-01T22:39:10.179Z,18.57
2023-02-01T22:41:37.456Z,14.03
2023-02-01T22:44:04.648Z,16.97
2023-02-01T22:46:31.848Z,16.43
2023-02-01T22:49:00.182Z,24.63
2023-02-01T22:51:30.341Z,18.20
2023-02-01T22:53:59.911Z,16.43
2023-02-01T22:56:30.587Z,18.13
2023-02-01T22:58:59.388Z,15.90
2023-02-01T23:01:26.949Z,16.97
2023-02-01T23:03:57.500Z,22.33
2023-02-01T23:06:28.261Z,16.43
2023-02-01T23:08:56.632Z,24.03
2023-02-01T23:11:26.270Z,18.80
2023-02-01T23:13:53.906Z,20.10
2023-02-01T23:16:21.783Z,15.30
2023-02-01T23:18:49.143Z,16.10
2023-02-01T23:21:19.567Z,20.50
2023-02-01T23:23:47.219Z,20.07
2023-02-01T23:26:15.003Z,19.00
2023-02-01T23:28:43.644Z,20.03
2023-02-01T23:31:13.372Z,23.17
2023-02-01T23:33:41.245Z,25.60
2023-02-01T23:36:13.083Z,16.27
2023-02-01T23:38:40.589Z,23.17
2023-02-01T23:41:09.556Z,18.67
2023-02-01T23:43:55.387Z,22.90
2023-02-01T23:46:24.746Z,15.83
2023-02-01T23:48:52.428Z,28.90
2023-02-01T23:51:20.686Z,18.50
2023-02-01T23:53:49.211Z,21.90
2023-02-01T23:56:21.188Z,18.70
2023-02-01T23:58:48.879Z,23.13
